map of GJL home
GJL - Airport
Location
City:  Jijel, Jijel, Algeria
Name:Ferhat Abbas
Old (Alt.):Taher
ICAO:DAAV
IATA:GJL

Details
Type:Airport (Aerodrome, Airfield)
Latitude:3647'40"N (36.794444)
Longitude:552'25"E (5.873611)
Elevation:36 ft (11 m)
Variation:1.68E (WMM2015 magnetic declination)
0.10 annual change
Runways:1
Longest:7874 × 148 ft (2400 × 45 m)

Time
Time Zone:UTC+1
Local Time:

Weather
METAR:DAAV 200100Z 16002KT 9999 FEW020 22/18 Q1016
TAF:DAAV 192300Z 2000/2024 24006KT 9999 SCT020 PROB30
TEMPO 2000/2008 2000 BR SCT008
BECMG 2010/2012 33012KT PROB30
TEMPO 2012/2018 FEW026CB

Related Locations
Nearby:
Farthest:GIS: 11991 mi / 19297 km
Gisborne, GIS, NZ

Find:

   beyond  
but within

Other Information
Maps:
NOTAMs:
Links:
Sources:

  
  • flag of Algeria
  

Sectional Chart

Flight Planning
at skyvector.com

Satellite Image

Google Maps Satellite view

 

Copyright © 2004-2018 Karl L. Swartz. All rights reserved.
The Great Circle Mapper name and logo are trademarks of the Great Circle Mapper.
All other trademarks mentioned herein belong to their respective owners.
Please see credits for attibutions and further copyright information.

  Follow gcmap on Facebook Follow gcmap on Twitter Follow gcmap on Google+ GCmap on LinkedIn

hCard Microformat

Geo Microformat